createdAt,value
2022-11-16T00:02:51.583Z,0
2022-11-16T00:08:22.671Z,0
2022-11-16T00:14:10.352Z,0
2022-11-16T00:19:30.724Z,0
2022-11-16T00:25:04.695Z,0
2022-11-16T00:30:24.053Z,0
2022-11-16T00:35:56.293Z,0
2022-11-16T00:41:54.223Z,0
2022-11-16T00:47:11.220Z,0
2022-11-16T00:52:35.676Z,0
2022-11-16T00:58:32.295Z,0
2022-11-16T01:03:59.107Z,0
2022-11-16T01:09:26.035Z,0
2022-11-16T01:14:57.867Z,0
2022-11-16T01:20:33.735Z,0
2022-11-16T01:25:51.699Z,0
2022-11-16T01:31:40.274Z,0
2022-11-16T01:36:54.614Z,0
2022-11-16T01:48:14.112Z,0
2022-11-16T01:53:54.563Z,0
2022-11-16T01:59:10.946Z,0
2022-11-16T02:04:47.138Z,3.6
2022-11-16T02:10:14.871Z,3.6
2022-11-16T02:15:58.838Z,3.6
2022-11-16T02:21:15.687Z,0
2022-11-16T02:27:06.142Z,0
2022-11-16T02:32:26.942Z,0
2022-11-16T02:38:00.593Z,0
2022-11-16T02:43:31.405Z,0
2022-11-16T02:49:04.443Z,0
2022-11-16T02:54:38.246Z,0
2022-11-16T03:00:10.064Z,0
2022-11-16T03:05:52.892Z,0
2022-11-16T03:11:18.384Z,0
2022-11-16T03:17:03.080Z,0
2022-11-16T03:22:20.733Z,0
2022-11-16T03:27:53.044Z,0
2022-11-16T03:33:27.555Z,0
2022-11-16T03:39:01.960Z,0
2022-11-16T03:44:30.145Z,0
2022-11-16T03:50:12.429Z,0
2022-11-16T03:55:27.409Z,0
2022-11-16T04:01:16.771Z,0
2022-11-16T04:06:37.514Z,0
2022-11-16T04:12:15.069Z,0
2022-11-16T04:17:41.246Z,0
2022-11-16T04:23:18.323Z,0
2022-11-16T04:28:51.529Z,0
2022-11-16T04:34:25.743Z,0
2022-11-16T04:40:16.482Z,0
2022-11-16T04:45:40.563Z,0
2022-11-16T04:51:17.674Z,0
2022-11-16T04:56:31.470Z,0
2022-11-16T05:02:04.866Z,0
2022-11-16T05:07:34.296Z,0
2022-11-16T05:13:31.656Z,0
2022-11-16T05:19:02.788Z,0
2022-11-16T05:24:17.131Z,0
2022-11-16T05:29:42.474Z,0
2022-11-16T05:35:18.260Z,0
2022-11-16T05:41:10.909Z,0
2022-11-16T05:46:40.051Z,0
2022-11-16T05:52:19.094Z,0
2022-11-16T05:57:36.303Z,0
2022-11-16T06:03:08.792Z,0
2022-11-16T06:08:34.496Z,0
2022-11-16T06:14:15.448Z,0
2022-11-16T06:19:32.600Z,0
2022-11-16T06:25:11.575Z,0
2022-11-16T06:30:39.636Z,0
2022-11-16T06:36:36.621Z,0
2022-11-16T06:47:20.488Z,0
2022-11-16T06:53:06.533Z,0
2022-11-16T06:58:53.172Z,0
2022-11-16T07:04:14.145Z,0
2022-11-16T07:09:40.065Z,0
2022-11-16T07:15:22.064Z,0
2022-11-16T07:20:48.013Z,0
2022-11-16T07:26:18.774Z,0
2022-11-16T07:31:42.552Z,0
2022-11-16T07:37:16.483Z,0
2022-11-16T07:43:03.834Z,0
2022-11-16T07:48:23.246Z,0
2022-11-16T07:54:02.856Z,0
2022-11-16T07:59:38.412Z,0
2022-11-16T08:05:18.670Z,0
2022-11-16T08:10:35.065Z,3.6
2022-11-16T08:16:18.966Z,5.9
2022-11-16T08:21:47.671Z,4.8
2022-11-16T08:27:11.506Z,0
2022-11-16T08:33:06.282Z,0
2022-11-16T08:38:24.948Z,0
2022-11-16T08:43:48.903Z,0
2022-11-16T08:49:29.597Z,2.4
2022-11-16T08:55:00.881Z,0
2022-11-16T09:00:32.877Z,0
2022-11-16T09:06:22.291Z,0
2022-11-16T09:11:46.599Z,0
2022-11-16T09:17:20.284Z,0
2022-11-16T09:22:51.044Z,0
2022-11-16T09:28:28.455Z,2.4
2022-11-16T09:33:57.601Z,0
2022-11-16T09:39:31.942Z,0
2022-11-16T09:44:53.028Z,2.4
2022-11-16T09:50:39.869Z,3.6
2022-11-16T09:56:04.776Z,0
2022-11-16T10:01:45.790Z,3.6
2022-11-16T10:07:00.288Z,0
2022-11-16T10:12:54.836Z,3.6
2022-11-16T10:18:14.071Z,2.4
2022-11-16T10:23:41.648Z,3.6
2022-11-16T10:29:14.385Z,4.8
2022-11-16T10:34:59.677Z,3.6
2022-11-16T10:40:41.514Z,4.8
2022-11-16T10:46:08.355Z,4.8
2022-11-16T10:51:32.254Z,8.4
2022-11-16T10:57:31.261Z,5.9
2022-11-16T11:02:43.637Z,7.2
2022-11-16T11:08:33.007Z,4.8
2022-11-16T11:13:57.288Z,3.6
2022-11-16T11:19:34.510Z,5.9
2022-11-16T11:25:16.055Z,4.8
2022-11-16T11:30:30.956Z,5.9
2022-11-16T11:36:23.573Z,5.9
2022-11-16T11:41:55.762Z,4.8
2022-11-16T11:52:43.281Z,4.8
2022-11-16T11:58:34.162Z,4.8
2022-11-16T12:03:47.017Z,3.6
2022-11-16T12:09:40.234Z,5.9
2022-11-16T12:15:21.364Z,7.2
2022-11-16T12:20:31.360Z,7.2
2022-11-16T12:26:04.976Z,7.2
2022-11-16T12:31:50.855Z,5.9
2022-11-16T12:37:21.251Z,7.2
2022-11-16T12:42:42.513Z,8.4
2022-11-16T12:48:32.319Z,8.4
2022-11-16T12:54:08.181Z,5.9
2022-11-16T12:59:26.577Z,8.4
2022-11-16T13:10:43.902Z,5.9
2022-11-16T13:16:31.977Z,8.4
2022-11-16T13:22:05.826Z,9.6
2022-11-16T13:27:32.619Z,5.9
2022-11-16T13:33:02.005Z,4.8
2022-11-16T13:38:49.222Z,5.9
2022-11-16T13:44:12.236Z,5.9
2022-11-16T13:49:32.433Z,5.9
2022-11-16T13:55:12.614Z,7.2
2022-11-16T14:00:52.790Z,5.9
2022-11-16T14:06:26.765Z,5.9
2022-11-16T14:12:12.939Z,5.9
2022-11-16T14:17:39.247Z,5.9
2022-11-16T14:23:09.106Z,7.2
2022-11-16T14:28:30.750Z,3.6
2022-11-16T14:34:06.476Z,0
2022-11-16T14:39:53.798Z,0
2022-11-16T14:45:31.809Z,2.4
2022-11-16T14:51:01.844Z,3.6
2022-11-16T14:56:31.039Z,0
2022-11-16T15:02:02.279Z,0
2022-11-16T15:07:31.769Z,0
2022-11-16T15:13:10.477Z,0
2022-11-16T15:18:48.261Z,0
2022-11-16T15:24:32.791Z,0
2022-11-16T15:29:50.098Z,0
2022-11-16T15:35:05.579Z,0
2022-11-16T15:40:56.876Z,0
2022-11-16T15:46:29.059Z,0
2022-11-16T15:51:52.752Z,2.4
2022-11-16T15:57:13.552Z,0
2022-11-16T16:02:49.808Z,0
2022-11-16T16:08:31.978Z,2.4
2022-11-16T16:14:04.393Z,0
2022-11-16T16:19:27.795Z,0
2022-11-16T16:25:11.873Z,2.4
2022-11-16T16:30:43.812Z,0
2022-11-16T16:36:03.712Z,0
2022-11-16T16:41:59.894Z,0
2022-11-16T16:47:18.156Z,0
2022-11-16T16:53:02.306Z,0
2022-11-16T16:58:36.299Z,0
2022-11-16T17:03:59.287Z,5.9
2022-11-16T17:09:45.608Z,0
2022-11-16T17:15:19.285Z,0
2022-11-16T17:20:46.360Z,0
2022-11-16T17:25:53.718Z,0
2022-11-16T17:31:37.775Z,0
2022-11-16T17:37:00.522Z,0
2022-11-16T17:42:39.583Z,0
2022-11-16T17:48:29.272Z,0
2022-11-16T17:53:46.345Z,0
2022-11-16T17:59:35.526Z,0
2022-11-16T18:05:09.373Z,0
2022-11-16T18:10:32.752Z,0
2022-11-16T18:15:45.180Z,0
2022-11-16T18:21:43.881Z,0
2022-11-16T18:27:16.494Z,0
2022-11-16T18:32:29.387Z,0
2022-11-16T18:38:03.156Z,0
2022-11-16T18:43:35.888Z,0
2022-11-16T18:49:24.135Z,0
2022-11-16T18:54:34.404Z,0
2022-11-16T19:00:08.414Z,0
2022-11-16T19:05:37.061Z,0
2022-11-16T19:11:14.376Z,0
2022-11-16T19:16:57.224Z,0
2022-11-16T19:22:26.111Z,0
2022-11-16T19:27:54.343Z,0
2022-11-16T19:33:43.731Z,0
2022-11-16T19:38:51.457Z,0
2022-11-16T19:44:21.974Z,0
2022-11-16T19:49:57.183Z,0
2022-11-16T19:55:42.054Z,0
2022-11-16T20:01:17.949Z,0
2022-11-16T20:06:45.272Z,3.6
2022-11-16T20:12:10.945Z,0
2022-11-16T20:17:43.397Z,0
2022-11-16T20:23:36.942Z,0
2022-11-16T20:28:44.094Z,0
2022-11-16T20:34:35.608Z,0
2022-11-16T20:40:07.640Z,0
2022-11-16T20:45:38.498Z,0
2022-11-16T20:50:59.295Z,0
2022-11-16T20:56:38.077Z,0
2022-11-16T21:02:04.114Z,0
2022-11-16T21:07:41.936Z,0
2022-11-16T21:13:22.696Z,0
2022-11-16T21:18:33.524Z,0
2022-11-16T21:24:10.745Z,0
2022-11-16T21:29:51.910Z,0
2022-11-16T21:35:35.862Z,0
2022-11-16T21:40:41.322Z,0
2022-11-16T21:46:34.104Z,0
2022-11-16T21:51:51.507Z,0
2022-11-16T21:57:41.830Z,0
2022-11-16T22:03:11.233Z,0
2022-11-16T22:08:37.064Z,0
2022-11-16T22:13:59.512Z,0
2022-11-16T22:19:47.886Z,0
2022-11-16T22:25:25.232Z,0
2022-11-16T22:30:55.185Z,0
2022-11-16T22:36:09.774Z,0
2022-11-16T22:41:50.981Z,0
2022-11-16T22:47:34.224Z,0
2022-11-16T22:52:51.688Z,0
2022-11-16T22:58:23.541Z,0
2022-11-16T23:03:48.059Z,0
2022-11-16T23:09:24.396Z,0
2022-11-16T23:20:23.219Z,0
2022-11-16T23:26:20.416Z,0
2022-11-16T23:31:34.197Z,0
2022-11-16T23:37:07.594Z,5.9
2022-11-16T23:42:39.331Z,2.4
2022-11-16T23:48:14.337Z,4.8
2022-11-16T23:54:00.937Z,3.6
2022-11-16T23:59:14.084Z,0
